createdAt,value
2019-01-17T00:02:01.335Z,94581.00
2019-01-17T00:08:17.563Z,94562.00
2019-01-17T00:11:25.957Z,94567.00
2019-01-17T00:14:26.950Z,94563.00
2019-01-17T00:17:35.377Z,94573.00
2019-01-17T00:20:36.382Z,94566.00
2019-01-17T00:23:44.888Z,94558.00
2019-01-17T00:29:39.577Z,94566.00
2019-01-17T00:32:47.993Z,94582.00
2019-01-17T00:35:56.496Z,94555.00
2019-01-17T00:38:57.806Z,94554.00
2019-01-17T00:41:58.244Z,94566.00
2019-01-17T00:44:55.770Z,94568.00
2019-01-17T00:51:17.580Z,94573.00
2019-01-17T00:54:19.032Z,94560.00
2019-01-17T00:57:27.417Z,94558.00
2019-01-17T01:00:29.380Z,94562.00
2019-01-17T01:06:44.077Z,94568.00
2019-01-17T01:09:52.485Z,94568.00
2019-01-17T01:12:52.268Z,94572.00
2019-01-17T01:16:22.101Z,94581.00
2019-01-17T01:19:30.512Z,94575.00
2019-01-17T01:22:31.619Z,94570.00
2019-01-17T01:25:27.864Z,94554.00
2019-01-17T01:28:36.269Z,94566.00
2019-01-17T01:31:37.177Z,94566.00
2019-01-17T01:34:45.572Z,94569.00
2019-01-17T01:37:49.600Z,94571.00
2019-01-17T01:40:58.024Z,94570.00
2019-01-17T01:44:06.440Z,94575.00
2019-01-17T01:47:06.462Z,94563.00
2019-01-17T01:50:14.870Z,94561.00
2019-01-17T01:53:23.294Z,94551.00
2019-01-17T01:56:31.716Z,94552.00
2019-01-17T01:59:13.530Z,94556.00
2019-01-17T02:02:03.136Z,94558.00
2019-01-17T02:04:45.658Z,94564.00
2019-01-17T02:07:35.247Z,94561.00
2019-01-17T02:10:16.981Z,94566.00
2019-01-17T02:13:06.485Z,94563.00
2019-01-17T02:15:49.095Z,94561.00
2019-01-17T02:18:38.570Z,94556.00
2019-01-17T02:21:21.188Z,94562.00
2019-01-17T02:24:03.939Z,94566.00
2019-01-17T02:26:53.695Z,94578.00
2019-01-17T02:30:02.887Z,94580.00
2019-01-17T02:32:45.073Z,94583.00
2019-01-17T02:35:34.739Z,94587.00
2019-01-17T02:38:16.865Z,94590.00
2019-01-17T02:41:06.364Z,94588.00
2019-01-17T02:43:48.818Z,94585.00
2019-01-17T02:46:38.357Z,94591.00
2019-01-17T02:49:20.508Z,94587.00
2019-01-17T02:52:09.989Z,94596.00
2019-01-17T02:54:52.185Z,94592.00
2019-01-17T02:57:41.709Z,94595.00
2019-01-17T03:00:23.587Z,94601.00
2019-01-17T03:03:13.126Z,94598.00
2019-01-17T03:05:55.396Z,94595.00
2019-01-17T03:08:44.963Z,94590.00
2019-01-17T03:11:27.528Z,94606.00
2019-01-17T03:14:17.048Z,94596.00
2019-01-17T03:16:59.126Z,94591.00
2019-01-17T03:19:48.625Z,94602.00
2019-01-17T03:22:30.534Z,94587.00
2019-01-17T03:25:12.648Z,94604.00
2019-01-17T03:28:02.222Z,94600.00
2019-01-17T03:30:44.031Z,94602.00
2019-01-17T03:33:33.536Z,94593.00
2019-01-17T03:36:16.000Z,94604.00
2019-01-17T03:39:45.988Z,94584.00
2019-01-17T03:42:31.267Z,94591.00
2019-01-17T03:45:39.787Z,94587.00
2019-01-17T03:48:22.047Z,94582.00
2019-01-17T03:51:11.550Z,94592.00
2019-01-17T03:53:54.057Z,94596.00
2019-01-17T03:59:35.750Z,94601.00
2019-01-17T04:02:25.372Z,94596.00
2019-01-17T04:08:23.193Z,94588.00
2019-01-17T04:11:12.772Z,94583.00
2019-01-17T04:13:55.079Z,94590.00
2019-01-17T04:16:44.621Z,94592.00
2019-01-17T04:19:27.157Z,94580.00
2019-01-17T04:22:16.659Z,94584.00
2019-01-17T04:24:59.208Z,94594.00
2019-01-17T04:28:07.610Z,94587.00
2019-01-17T04:30:50.142Z,94590.00
2019-01-17T04:33:39.693Z,94599.00
2019-01-17T04:36:22.044Z,94590.00
2019-01-17T04:42:19.171Z,94594.00
2019-01-17T04:48:30.766Z,94590.00
2019-01-17T04:51:12.756Z,94591.00
2019-01-17T04:57:10.195Z,94595.00
2019-01-17T05:03:08.056Z,94611.00
2019-01-17T05:06:16.863Z,94595.00
2019-01-17T05:09:47.150Z,94603.00
2019-01-17T05:12:29.269Z,94597.00
2019-01-17T05:15:18.785Z,94595.00
2019-01-17T05:18:08.286Z,94600.00
2019-01-17T05:21:16.671Z,94596.00
2019-01-17T05:23:59.747Z,94595.00
2019-01-17T05:26:49.253Z,94585.00
2019-01-17T05:29:31.134Z,94592.00
2019-01-17T05:32:20.611Z,94589.00
2019-01-17T05:35:02.518Z,94601.00
2019-01-17T05:37:52.143Z,94588.00
2019-01-17T05:40:41.657Z,94594.00
2019-01-17T05:43:24.147Z,94580.00
2019-01-17T05:46:06.814Z,94574.00
2019-01-17T05:48:56.330Z,94578.00
2019-01-17T05:51:38.496Z,94570.00
2019-01-17T05:54:28.022Z,94576.00
2019-01-17T05:57:10.349Z,94583.00
2019-01-17T06:00:18.806Z,94566.00
2019-01-17T06:03:01.008Z,94571.00
2019-01-17T06:05:43.058Z,94559.00
2019-01-17T06:11:39.799Z,94562.00
2019-01-17T06:14:29.302Z,94550.00
2019-01-17T06:17:38.524Z,94556.00
2019-01-17T06:20:20.909Z,94553.00
2019-01-17T06:23:29.319Z,94547.00
2019-01-17T06:26:11.291Z,94562.00
2019-01-17T06:32:06.976Z,94552.00
2019-01-17T06:34:49.062Z,94546.00
2019-01-17T06:37:38.594Z,94545.00
2019-01-17T06:40:25.047Z,94554.00
2019-01-17T06:43:14.590Z,94561.00
2019-01-17T06:45:57.532Z,94561.00
2019-01-17T06:49:05.973Z,94549.00
2019-01-17T06:51:48.867Z,94545.00
2019-01-17T06:54:38.378Z,94552.00
2019-01-17T06:57:20.650Z,94551.00
2019-01-17T07:03:38.885Z,94541.00
2019-01-17T07:06:28.439Z,94538.00
2019-01-17T07:09:18.860Z,94534.00
2019-01-17T07:12:01.150Z,94547.00
2019-01-17T07:14:50.705Z,94543.00
2019-01-17T07:17:32.827Z,94533.00
2019-01-17T07:20:22.446Z,94529.00
2019-01-17T07:23:30.834Z,94539.00
2019-01-17T07:26:13.274Z,94527.00
2019-01-17T07:29:02.826Z,94532.00
2019-01-17T07:31:44.519Z,94526.00
2019-01-17T07:34:53.994Z,94529.00
2019-01-17T07:37:36.394Z,94524.00
2019-01-17T07:40:25.939Z,94520.00
2019-01-17T07:43:08.585Z,94517.00
2019-01-17T07:45:58.073Z,94523.00
2019-01-17T07:48:40.001Z,94509.00
2019-01-17T07:51:29.523Z,94511.00
2019-01-17T07:54:11.841Z,94510.00
2019-01-17T07:57:01.339Z,94512.00
2019-01-17T07:59:43.157Z,94506.00
2019-01-17T08:02:32.681Z,94514.00
2019-01-17T08:05:14.446Z,94510.00
2019-01-17T08:08:03.994Z,94517.00
2019-01-17T08:10:46.100Z,94516.00
2019-01-17T08:13:35.700Z,94522.00
2019-01-17T08:16:18.188Z,94516.00
2019-01-17T08:19:07.748Z,94512.00
2019-01-17T08:21:50.191Z,94505.00
2019-01-17T08:27:41.122Z,94502.00
2019-01-17T08:30:24.614Z,94501.00
2019-01-17T08:36:06.323Z,94500.00
2019-01-17T08:38:55.884Z,94507.00
2019-01-17T08:42:04.289Z,94500.00
2019-01-17T08:44:46.904Z,94508.00
2019-01-17T08:50:37.669Z,94509.00
2019-01-17T08:53:20.867Z,94517.00
2019-01-17T08:56:03.223Z,94499.00
2019-01-17T09:02:20.531Z,94500.00
2019-01-17T09:11:13.221Z,94511.00
2019-01-17T09:13:55.190Z,94510.00
2019-01-17T09:16:44.671Z,94508.00
2019-01-17T09:19:26.629Z,94510.00
2019-01-17T09:22:16.170Z,94504.00
2019-01-17T09:24:58.391Z,94503.00
2019-01-17T09:27:47.901Z,94514.00
2019-01-17T09:30:37.415Z,94512.00
2019-01-17T09:33:27.022Z,94503.00
2019-01-17T09:36:09.663Z,94500.00
2019-01-17T09:38:59.188Z,94498.00
2019-01-17T09:41:41.700Z,94490.00
2019-01-17T09:44:31.233Z,94490.00
2019-01-17T09:47:13.716Z,94495.00
2019-01-17T09:53:11.581Z,94492.00
2019-01-17T09:56:01.083Z,94491.00
2019-01-17T09:58:43.356Z,94477.00
2019-01-17T10:01:25.420Z,94471.00
2019-01-17T10:04:33.833Z,94471.00
2019-01-17T10:07:16.406Z,94463.00
2019-01-17T10:09:58.943Z,94465.00
2019-01-17T10:12:48.515Z,94477.00
2019-01-17T10:15:41.807Z,94468.00
2019-01-17T10:19:09.381Z,94459.00
2019-01-17T10:22:10.802Z,94462.00
2019-01-17T10:25:38.382Z,94454.00
2019-01-17T10:29:01.908Z,94462.00
2019-01-17T10:39:14.697Z,94447.00
2019-01-17T10:42:15.821Z,94457.00
2019-01-17T10:45:43.466Z,94453.00
2019-01-17T10:48:46.751Z,94449.00
2019-01-17T10:55:14.735Z,94442.00
2019-01-17T10:58:42.377Z,94438.00
2019-01-17T11:01:43.756Z,94436.00
2019-01-17T11:04:45.321Z,94441.00
2019-01-17T11:08:13.062Z,94420.00
2019-01-17T11:11:14.046Z,94427.00
2019-01-17T11:14:41.651Z,94414.00
2019-01-17T11:17:43.398Z,94417.00
2019-01-17T11:21:07.108Z,94404.00
2019-01-17T11:24:14.631Z,94413.00
2019-01-17T11:27:42.250Z,94413.00
2019-01-17T11:30:43.519Z,94410.00
2019-01-17T11:34:11.171Z,94410.00
2019-01-17T11:36:58.323Z,94396.00
2019-01-17T11:40:25.985Z,94402.00
2019-01-17T11:43:20.013Z,94385.00
2019-01-17T11:46:47.631Z,94377.00
2019-01-17T11:49:48.889Z,94381.00
2019-01-17T11:53:16.479Z,94394.00
2019-01-17T11:56:08.551Z,94377.00
2019-01-17T12:02:49.915Z,94374.00
2019-01-17T12:05:39.417Z,94369.00
2019-01-17T12:08:21.834Z,94377.00
2019-01-17T12:14:12.170Z,94368.00
2019-01-17T12:16:54.364Z,94366.00
2019-01-17T12:20:03.241Z,94362.00
2019-01-17T12:22:45.181Z,94364.00
2019-01-17T12:28:33.369Z,94360.00
2019-01-17T12:40:27.334Z,94346.00
2019-01-17T12:43:14.013Z,94345.00
2019-01-17T12:49:10.845Z,94368.00
2019-01-17T12:52:19.265Z,94359.00
2019-01-17T12:55:01.597Z,94362.00
2019-01-17T12:57:51.137Z,94356.00
2019-01-17T13:00:40.714Z,94354.00
2019-01-17T13:03:30.530Z,94362.00
2019-01-17T13:06:12.323Z,94363.00
2019-01-17T13:09:20.709Z,94366.00
2019-01-17T13:15:03.255Z,94371.00
2019-01-17T13:17:52.843Z,94370.00
2019-01-17T13:20:35.359Z,94381.00
2019-01-17T13:26:21.454Z,94388.00
2019-01-17T13:29:03.180Z,94391.00
2019-01-17T13:31:52.691Z,94396.00
2019-01-17T13:34:36.261Z,94389.00
2019-01-17T13:37:25.741Z,94410.00
2019-01-17T13:40:09.889Z,94408.00
2019-01-17T13:42:57.020Z,94413.00
2019-01-17T13:45:39.444Z,94402.00
2019-01-17T13:48:29.374Z,94426.00
2019-01-17T13:51:17.118Z,94423.00
2019-01-17T13:54:24.026Z,94429.00
2019-01-17T13:57:07.673Z,94429.00
2019-01-17T14:00:16.204Z,94434.00
2019-01-17T14:03:25.517Z,94424.00
2019-01-17T14:06:07.501Z,94422.00
2019-01-17T14:08:56.986Z,94440.00
2019-01-17T14:11:39.571Z,94436.00
2019-01-17T14:17:32.702Z,94435.00
2019-01-17T14:20:22.483Z,94425.00
2019-01-17T14:23:04.693Z,94427.00
2019-01-17T14:26:15.420Z,94454.00
2019-01-17T14:32:07.103Z,94455.00
2019-01-17T14:34:49.168Z,94455.00
2019-01-17T14:37:39.061Z,94449.00
2019-01-17T14:40:21.220Z,94446.00
2019-01-17T14:43:10.740Z,94468.00
2019-01-17T14:45:53.630Z,94461.00
2019-01-17T14:48:35.568Z,94466.00
2019-01-17T14:51:25.170Z,94466.00
2019-01-17T14:54:07.326Z,94468.00
2019-01-17T15:02:59.295Z,94469.00
2019-01-17T15:05:41.853Z,94478.00
2019-01-17T15:11:39.727Z,94482.00
2019-01-17T15:17:30.238Z,94490.00
2019-01-17T15:20:14.311Z,94492.00
2019-01-17T15:26:13.417Z,94502.00
2019-01-17T15:29:03.674Z,94506.00
2019-01-17T15:31:46.762Z,94506.00
2019-01-17T15:37:27.562Z,94514.00
2019-01-17T15:43:34.630Z,94527.00
2019-01-17T15:46:24.175Z,94529.00
2019-01-17T15:49:06.648Z,94545.00
2019-01-17T15:58:21.354Z,94519.00
2019-01-17T16:01:03.768Z,94530.00
2019-01-17T16:03:53.311Z,94543.00
2019-01-17T16:06:35.324Z,94544.00
2019-01-17T16:09:24.990Z,94535.00
2019-01-17T16:12:06.634Z,94554.00
2019-01-17T16:14:56.344Z,94543.00
2019-01-17T16:17:38.528Z,94542.00
2019-01-17T16:20:28.077Z,94546.00
2019-01-17T16:23:10.833Z,94549.00
2019-01-17T16:26:19.314Z,94557.00
2019-01-17T16:29:01.902Z,94564.00
2019-01-17T16:31:51.488Z,94571.00
2019-01-17T16:34:33.297Z,94577.00
2019-01-17T16:37:22.834Z,94573.00
2019-01-17T16:40:08.999Z,94566.00
2019-01-17T16:42:58.566Z,94576.00
2019-01-17T16:45:40.824Z,94580.00
2019-01-17T16:48:30.424Z,94573.00
2019-01-17T16:51:12.520Z,94584.00
2019-01-17T16:54:20.959Z,94582.00
2019-01-17T16:57:03.399Z,94594.00
2019-01-17T16:59:52.936Z,94588.00
2019-01-17T17:02:35.179Z,94603.00
2019-01-17T17:05:43.896Z,94597.00
2019-01-17T17:08:26.505Z,94607.00
2019-01-17T17:11:38.155Z,94600.00
2019-01-17T17:14:20.714Z,94613.00
2019-01-17T17:23:33.908Z,94602.00
2019-01-17T17:26:16.503Z,94607.00
2019-01-17T17:29:06.054Z,94623.00
2019-01-17T17:31:48.129Z,94621.00
2019-01-17T17:34:37.647Z,94625.00
2019-01-17T17:37:20.174Z,94621.00
2019-01-17T17:43:22.482Z,94620.00
2019-01-17T17:46:12.093Z,94628.00
2019-01-17T17:48:54.560Z,94612.00
2019-01-17T17:51:44.082Z,94611.00
2019-01-17T17:54:25.770Z,94621.00
2019-01-17T17:57:15.549Z,94633.00
2019-01-17T17:59:58.159Z,94631.00
2019-01-17T18:05:50.608Z,94631.00
2019-01-17T18:11:47.291Z,94640.00
2019-01-17T18:14:36.969Z,94636.00
2019-01-17T18:17:26.553Z,94640.00
2019-01-17T18:20:08.991Z,94638.00
2019-01-17T18:22:58.732Z,94649.00
2019-01-17T18:25:42.185Z,94656.00
2019-01-17T18:28:24.526Z,94653.00
2019-01-17T18:31:14.085Z,94655.00
2019-01-17T18:33:55.828Z,94654.00
2019-01-17T18:36:45.450Z,94658.00
2019-01-17T18:39:27.383Z,94666.00
2019-01-17T18:42:17.063Z,94660.00
2019-01-17T18:44:59.711Z,94665.00
2019-01-17T18:48:08.326Z,94665.00
2019-01-17T18:50:52.356Z,94677.00
2019-01-17T18:53:34.580Z,94673.00
2019-01-17T18:56:24.318Z,94675.00
2019-01-17T18:59:07.375Z,94683.00
2019-01-17T19:01:56.899Z,94678.00
2019-01-17T19:04:38.982Z,94669.00
2019-01-17T19:07:29.048Z,94666.00
2019-01-17T19:10:18.502Z,94683.00
2019-01-17T19:16:15.849Z,94678.00
2019-01-17T19:19:05.801Z,94671.00
2019-01-17T19:21:47.735Z,94679.00
2019-01-17T19:24:37.351Z,94676.00
2019-01-17T19:27:19.747Z,94666.00
2019-01-17T19:36:35.192Z,94683.00
2019-01-17T19:39:17.789Z,94682.00
2019-01-17T19:42:07.443Z,94677.00
2019-01-17T19:44:57.236Z,94699.00
2019-01-17T19:47:40.456Z,94700.00
2019-01-17T19:50:25.435Z,94672.00
2019-01-17T19:53:15.103Z,94703.00
2019-01-17T19:55:57.570Z,94685.00
2019-01-17T19:59:06.230Z,94695.00
2019-01-17T20:01:48.973Z,94685.00
2019-01-17T20:04:41.847Z,94692.00
2019-01-17T20:07:22.895Z,94678.00
2019-01-17T20:13:33.568Z,94690.00
2019-01-17T20:16:15.465Z,94698.00
2019-01-17T20:22:11.773Z,94683.00
2019-01-17T20:25:01.557Z,94685.00
2019-01-17T20:30:59.421Z,94706.00
2019-01-17T20:33:49.084Z,94707.00
2019-01-17T20:36:31.169Z,94694.00
2019-01-17T20:39:20.941Z,94701.00
2019-01-17T20:42:03.105Z,94700.00
2019-01-17T20:44:52.649Z,94716.00
2019-01-17T20:47:35.158Z,94714.00
2019-01-17T20:51:05.176Z,94709.00
2019-01-17T20:53:47.604Z,94714.00
2019-01-17T20:56:37.231Z,94711.00
2019-01-17T20:59:20.700Z,94721.00
2019-01-17T21:02:48.319Z,94717.00
2019-01-17T21:05:30.426Z,94727.00
2019-01-17T21:08:19.956Z,94737.00
2019-01-17T21:11:01.939Z,94734.00
2019-01-17T21:13:51.483Z,94740.00
2019-01-17T21:16:35.976Z,94738.00
2019-01-17T21:19:25.560Z,94732.00
2019-01-17T21:22:07.954Z,94744.00
2019-01-17T21:24:49.805Z,94748.00
2019-01-17T21:27:39.339Z,94761.00
2019-01-17T21:30:23.820Z,94755.00
2019-01-17T21:36:19.590Z,94790.00
2019-01-17T21:39:20.466Z,94763.00
2019-01-17T21:42:09.978Z,94784.00
2019-01-17T21:48:00.748Z,94785.00
2019-01-17T21:50:42.428Z,94784.00
2019-01-17T21:56:40.073Z,94788.00
2019-01-17T21:59:40.621Z,94800.00
2019-01-17T22:02:30.201Z,94799.00
2019-01-17T22:05:12.932Z,94808.00
2019-01-17T22:08:02.477Z,94806.00
2019-01-17T22:14:00.888Z,94837.00
2019-01-17T22:16:50.479Z,94836.00
2019-01-17T22:19:33.183Z,94850.00
2019-01-17T22:22:14.898Z,94857.00
2019-01-17T22:24:57.166Z,94876.00
2019-01-17T22:28:27.559Z,94870.00
2019-01-17T22:31:10.011Z,94876.00
2019-01-17T22:34:18.427Z,94880.00
2019-01-17T22:37:00.618Z,94868.00
2019-01-17T22:42:57.265Z,94879.00
2019-01-17T22:45:46.853Z,94881.00
2019-01-17T22:48:55.274Z,94880.00
2019-01-17T22:51:37.356Z,94873.00
2019-01-17T22:54:45.768Z,94874.00
2019-01-17T22:57:28.238Z,94876.00
2019-01-17T23:01:00.018Z,94880.00
2019-01-17T23:03:43.346Z,94885.00
2019-01-17T23:09:39.394Z,94882.00
2019-01-17T23:12:28.966Z,94885.00
2019-01-17T23:15:18.532Z,94890.00
2019-01-17T23:18:08.035Z,94898.00
2019-01-17T23:20:57.557Z,94887.00
2019-01-17T23:23:39.693Z,94892.00
2019-01-17T23:26:29.257Z,94891.00
2019-01-17T23:29:15.894Z,94884.00
2019-01-17T23:35:30.144Z,94883.00
2019-01-17T23:41:20.567Z,94887.00
2019-01-17T23:44:02.343Z,94884.00
2019-01-17T23:47:10.761Z,94889.00
2019-01-17T23:49:53.085Z,94878.00
2019-01-17T23:52:35.679Z,94882.00
2019-01-17T23:55:25.189Z,94889.00
2019-01-17T23:58:33.627Z,94885.00
